Time;durP1;ratioP1;P1;durP2;ratioP2;P2;SDS_P1;SDS_P2;PMS_P1;PMS_P2;Temp;Humidity;BMP_temperature;BMP_pressure;BME280_temperature;BME280_humidity;BME280_pressure;Samples;Min_cycle;Max_cycle;Signal;HPM_P1;HPM_P2
2022/11/14 00:00:48;;;;;;;29.92;22.38;;;;;;;5.58;79.62;99928.34;5107091;28;20044;-71
2022/11/14 00:03:15;;;;;;;28.92;22.25;;;;;;;6.63;79.61;100036.03;5107266;28;20043;-71
2022/11/14 00:05:45;;;;;;;28.38;22.65;;;;;;;6.63;79.57;100030.75;5107231;28;20085;-71
2022/11/14 00:08:15;;;;;;;28.65;22.20;;;;;;;6.63;79.62;100033.41;5107151;28;20040;-71
2022/11/14 00:10:42;;;;;;;28.80;21.58;;;;;;;6.63;79.40;100027.28;5107357;28;20043;-71
2022/11/14 00:13:09;;;;;;;30.25;21.85;;;;;;;6.59;79.20;100026.50;5105996;28;20308;-71
2022/11/14 00:15:36;;;;;;;27.95;21.60;;;;;;;6.57;79.28;100028.31;5106853;28;20044;-70
2022/11/14 00:18:02;;;;;;;27.85;21.10;;;;;;;6.56;79.24;100029.22;5106663;28;20044;-71
2022/11/14 00:20:29;;;;;;;31.00;21.20;;;;;;;6.53;79.22;100028.44;5107250;28;20059;-72
2022/11/14 00:22:57;;;;;;;28.58;21.77;;;;;;;6.52;79.39;100026.72;5105813;28;20039;-71
2022/11/14 00:25:24;;;;;;;28.73;22.55;;;;;;;6.51;79.21;100014.44;5105765;28;20044;-72
2022/11/14 00:27:51;;;;;;;27.52;22.00;;;;;;;6.48;79.30;100030.34;5106784;28;20093;-72
2022/11/14 00:30:18;;;;;;;33.70;23.55;;;;;;;6.48;79.35;100028.56;5106679;28;20048;-72
2022/11/14 00:32:44;;;;;;;27.65;21.30;;;;;;;6.47;79.31;100029.47;5106441;28;20086;-72
2022/11/14 00:35:11;;;;;;;27.67;22.08;;;;;;;6.35;79.26;100006.09;5105588;28;20230;-72
2022/11/14 00:37:38;;;;;;;27.98;21.83;;;;;;;6.43;79.34;100018.16;5106629;28;20070;-71
2022/11/14 00:40:07;;;;;;;29.30;21.63;;;;;;;6.42;79.48;100021.69;5106920;28;20044;-71
2022/11/14 00:42:34;;;;;;;29.65;22.75;;;;;;;6.24;79.52;99981.84;5105443;28;20036;-71
2022/11/14 00:45:01;;;;;;;29.10;22.85;;;;;;;6.46;79.43;100025.09;5106282;28;20044;-72
2022/11/14 00:47:27;;;;;;;27.15;21.40;;;;;;;6.47;79.36;100023.34;5106541;28;20058;-71
2022/11/14 00:49:54;;;;;;;30.15;21.60;;;;;;;6.48;79.33;100025.94;5105447;28;20048;-72
2022/11/14 00:52:21;;;;;;;26.77;20.90;;;;;;;6.48;79.40;100025.94;5105189;28;20051;-72
2022/11/14 00:54:47;;;;;;;29.40;21.20;;;;;;;6.48;79.59;100023.28;5106364;28;20035;-72
2022/11/14 00:57:16;;;;;;;27.38;20.92;;;;;;;6.49;79.64;100022.38;5106343;28;20051;-72
2022/11/14 00:59:42;;;;;;;29.10;22.17;;;;;;;6.51;79.50;100030.25;5106003;28;20040;-71
2022/11/14 01:02:09;;;;;;;27.80;20.80;;;;;;;6.51;79.77;100031.09;5105978;28;20036;-71
2022/11/14 01:04:36;;;;;;;25.40;20.50;;;;;;;6.53;79.51;100033.69;5105958;28;20051;-71
2022/11/14 01:07:02;;;;;;;26.25;21.63;;;;;;;6.52;79.81;100030.19;5105061;28;20063;-72
2022/11/14 01:09:29;;;;;;;25.80;19.73;;;;;;;6.52;79.77;100024.94;5104979;28;20040;-71
2022/11/14 01:11:56;;;;;;;27.63;20.77;;;;;;;4.45;79.26;99668.53;5105975;28;20040;-71
2022/11/14 01:14:24;;;;;;;24.63;20.45;;;;;;;6.48;79.71;100004.88;5106027;28;20237;-71
2022/11/14 01:16:51;;;;;;;28.73;21.90;;;;;;;6.31;79.72;99964.97;5106022;28;20352;-71
2022/11/14 01:19:17;;;;;;;26.88;21.83;;;;;;;6.54;79.84;100009.09;5105733;28;20089;-72
2022/11/14 01:21:44;;;;;;;27.92;21.63;;;;;;;6.53;79.80;100000.31;5105755;28;20040;-72
2022/11/14 01:24:11;;;;;;;27.52;21.67;;;;;;;6.54;79.90;99988.88;5105692;28;20300;-71
2022/11/14 01:26:39;;;;;;;28.20;20.85;;;;;;;6.54;79.91;99994.16;5106216;28;20050;-72
2022/11/14 01:29:05;;;;;;;25.10;20.23;;;;;;;6.53;79.95;99981.91;5105932;28;20047;-71
2022/11/14 01:31:33;;;;;;;28.35;21.70;;;;;;;5.51;79.98;99812.88;5104704;28;20040;-71
2022/11/14 01:34:00;;;;;;;28.00;21.70;;;;;;;6.54;80.11;99980.13;5106186;28;20063;-71
2022/11/14 01:36:27;;;;;;;24.80;21.60;;;;;;;6.55;80.20;99973.94;5105569;28;20066;-71
2022/11/14 01:38:54;;;;;;;27.75;21.33;;;;;;;5.88;80.28;99875.84;5105826;28;20040;-71
2022/11/14 01:41:21;;;;;;;28.50;22.95;;;;;;;6.57;80.30;99977.41;5105532;28;20047;-71
2022/11/14 01:43:49;;;;;;;30.83;23.02;;;;;;;6.58;80.40;99976.50;5105512;28;20079;-71
2022/11/14 01:46:20;;;;;;;29.25;22.52;;;;;;;6.58;80.27;99982.63;5104930;28;20083;-71
2022/11/14 01:48:52;;;;;;;30.15;22.38;;;;;;;6.57;80.69;99986.16;5104613;28;20052;-72
2022/11/14 01:51:24;;;;;;;28.25;23.02;;;;;;;6.57;80.55;99974.78;5105904;28;20048;-71
2022/11/14 01:53:54;;;;;;;27.67;21.05;;;;;;;6.60;80.67;99977.31;5105675;28;20109;-71
2022/11/14 01:56:27;;;;;;;29.20;22.25;;;;;;;6.25;80.50;99934.44;5105404;28;20044;-71
2022/11/14 01:58:58;;;;;;;28.13;22.60;;;;;;;6.61;80.60;99974.63;5105850;28;20230;-71
2022/11/14 02:01:25;;;;;;;28.17;21.23;;;;;;;6.46;80.55;99943.47;5109685;28;20067;-71
2022/11/14 02:03:55;;;;;;;34.78;22.65;;;;;;;6.63;80.55;99970.19;5109558;28;20055;-71
2022/11/14 02:06:25;;;;;;;26.70;20.92;;;;;;;6.64;80.50;99964.00;5109585;28;20052;-71
2022/11/14 02:08:53;;;;;;;27.52;21.98;;;;;;;6.66;80.48;99964.81;5109230;28;20223;-71
2022/11/14 02:11:20;;;;;;;28.67;21.83;;;;;;;6.47;80.51;99933.81;5109510;28;20334;-71
2022/11/14 02:13:47;;;;;;;26.98;22.30;;;;;;;6.68;80.43;99959.50;5108863;28;20043;-71
2022/11/14 02:16:14;;;;;;;30.67;22.55;;;;;;;6.68;80.63;99959.50;5108913;28;20043;-71
2022/11/14 02:18:41;;;;;;;28.23;22.65;;;;;;;6.58;80.57;99944.88;5109329;28;20228;-71
2022/11/14 02:21:09;;;;;;;26.38;20.40;;;;;;;6.70;80.52;99960.31;5109318;28;20040;-71
2022/11/14 02:23:36;;;;;;;29.70;24.20;;;;;;;6.69;80.53;99962.09;5109270;28;20223;-71
2022/11/14 02:26:03;;;;;;;26.73;21.13;;;;;;;6.69;80.62;99959.47;5108363;28;20048;-70
2022/11/14 02:28:29;;;;;;;28.17;21.60;;;;;;;6.23;80.44;99894.13;5108060;28;20044;-70
2022/11/14 02:30:56;;;;;;;30.10;22.20;;;;;;;6.72;80.60;99961.16;5108452;28;20044;-71
2022/11/14 02:33:23;;;;;;;28.60;22.17;;;;;;;6.72;80.57;99967.28;5109036;28;20044;-71
2022/11/14 02:35:50;;;;;;;31.90;22.80;;;;;;;6.72;80.65;99962.00;5109074;28;20059;-71
2022/11/14 02:38:18;;;;;;;29.35;22.30;;;;;;;6.72;80.92;99969.06;5108688;28;20050;-71
2022/11/14 02:40:45;;;;;;;29.77;22.65;;;;;;;6.73;80.66;99960.25;5108868;28;20040;-71
2022/11/14 02:43:11;;;;;;;28.25;22.63;;;;;;;6.73;80.64;99957.59;5108877;28;20048;-70
2022/11/14 02:45:38;;;;;;;27.65;21.88;;;;;;;6.72;80.69;99954.09;5108822;28;20044;-70
2022/11/14 02:48:05;;;;;;;27.83;22.10;;;;;;;6.72;80.68;99959.38;5107853;28;20040;-71
2022/11/14 02:50:32;;;;;;;30.40;22.17;;;;;;;6.70;80.76;99948.03;5108230;28;20063;-70
2022/11/14 02:52:59;;;;;;;29.35;22.58;;;;;;;5.23;80.74;99707.63;5108851;28;20044;-70
2022/11/14 02:55:27;;;;;;;25.70;21.90;;;;;;;6.71;80.85;99951.53;5108339;28;20105;-72
2022/11/14 02:57:54;;;;;;;28.90;23.38;;;;;;;6.70;80.92;99942.75;5108548;28;20044;-69
2022/11/14 03:00:20;;;;;;;25.35;21.00;;;;;;;6.68;81.00;99946.34;5108805;28;20133;-71
2022/11/14 03:02:47;;;;;;;31.20;23.25;;;;;;;6.67;80.94;99949.88;5090882;28;20031;-71
2022/11/14 03:05:14;;;;;;;26.80;21.02;;;;;;;6.68;80.89;99947.22;5108445;28;20044;-70
2022/11/14 03:07:41;;;;;;;27.50;21.58;;;;;;;6.69;80.86;99953.34;5108472;28;20051;-71
2022/11/14 03:10:08;;;;;;;28.02;22.15;;;;;;;6.69;80.89;99948.06;5107207;28;20207;-71
2022/11/14 03:12:37;;;;;;;27.77;21.42;;;;;;;6.69;80.88;99950.69;5108232;28;20052;-71
2022/11/14 03:15:04;;;;;;;28.17;23.40;;;;;;;6.70;80.93;99952.44;5108137;28;20048;-71
2022/11/14 03:17:32;;;;;;;31.00;22.58;;;;;;;6.70;80.94;99953.28;5107146;28;20047;-72
2022/11/14 03:19:59;;;;;;;28.52;22.83;;;;;;;6.70;80.99;99958.56;5108581;28;20086;-71
2022/11/14 03:22:25;;;;;;;31.98;24.35;;;;;;;6.69;80.97;99956.84;5108509;28;20353;-71
2022/11/14 03:24:52;;;;;;;31.08;21.92;;;;;;;6.69;80.97;99946.28;5106979;28;20044;-71
2022/11/14 03:27:19;;;;;;;29.23;22.23;;;;;;;6.67;81.10;99948.13;5108020;28;20039;-71
2022/11/14 03:29:47;;;;;;;27.33;21.70;;;;;;;6.67;81.01;99948.13;5107994;28;20044;-71
2022/11/14 03:32:14;;;;;;;28.83;21.85;;;;;;;6.69;80.87;99950.69;5107874;28;20230;-72
2022/11/14 03:34:42;;;;;;;28.42;22.58;;;;;;;6.68;81.01;99948.97;5107056;28;20081;-72
2022/11/14 03:37:08;;;;;;;31.17;22.95;;;;;;;6.65;80.96;99946.44;5106986;28;20050;-72
2022/11/14 03:39:35;;;;;;;30.10;23.65;;;;;;;6.62;81.27;99947.38;5106680;28;20047;-72
2022/11/14 03:42:02;;;;;;;30.60;23.02;;;;;;;6.61;81.34;99943.03;5107395;28;20047;-70
2022/11/14 03:44:29;;;;;;;28.33;22.73;;;;;;;6.62;81.23;99942.13;5107970;28;20051;-71
2022/11/14 03:46:57;;;;;;;30.77;24.42;;;;;;;6.40;81.25;99918.19;5107544;28;20230;-71
2022/11/14 03:49:23;;;;;;;29.85;23.17;;;;;;;6.61;81.36;99943.03;5106502;28;20044;-71
2022/11/14 03:51:50;;;;;;;30.15;22.60;;;;;;;6.61;81.37;99940.41;5106318;28;20082;-71
2022/11/14 03:54:17;;;;;;;31.23;24.77;;;;;;;6.61;81.25;99929.84;5107459;28;20051;-71
2022/11/14 03:56:43;;;;;;;30.60;22.88;;;;;;;6.60;81.46;99935.16;5106876;28;20040;-71
2022/11/14 03:59:10;;;;;;;29.02;22.80;;;;;;;4.34;81.06;99549.00;5107428;28;20310;-70
2022/11/14 04:01:37;;;;;;;33.25;24.08;;;;;;;6.60;81.79;99932.53;5106484;28;20284;-71
2022/11/14 04:04:05;;;;;;;31.95;23.13;;;;;;;6.59;81.41;99930.81;5106117;28;20047;-71
2022/11/14 04:06:31;;;;;;;29.63;21.35;;;;;;;6.59;81.28;99922.91;5106952;28;20051;-71
2022/11/14 04:08:59;;;;;;;35.70;25.10;;;;;;;6.58;81.46;99923.81;5107115;28;20039;-71
2022/11/14 04:11:26;;;;;;;29.80;22.98;;;;;;;6.54;81.56;99923.06;5107119;28;20222;-71
2022/11/14 04:13:53;;;;;;;28.42;21.80;;;;;;;6.54;81.70;99915.16;5106230;28;20051;-71
2022/11/14 04:16:20;;;;;;;31.75;24.25;;;;;;;4.90;81.53;99633.25;5106798;28;20044;-70
2022/11/14 04:18:47;;;;;;;28.08;21.35;;;;;;;6.53;81.70;99917.81;5105903;28;20296;-71
2022/11/14 04:21:15;;;;;;;26.05;21.13;;;;;;;6.34;81.60;99883.28;5107007;28;20311;-71
2022/11/14 04:23:41;;;;;;;29.25;23.27;;;;;;;6.53;81.67;99921.31;5106436;28;20176;-71
2022/11/14 04:26:08;;;;;;;29.15;23.42;;;;;;;6.55;81.56;99922.13;5106601;28;20053;-72
2022/11/14 04:28:35;;;;;;;30.50;22.88;;;;;;;6.56;81.60;99915.09;5106280;28;20055;-72
2022/11/14 04:31:02;;;;;;;30.92;22.73;;;;;;;6.58;81.47;99916.78;5106665;28;20127;-71
2022/11/14 04:33:28;;;;;;;27.88;20.83;;;;;;;6.28;81.52;99865.03;5106134;28;20044;-71
2022/11/14 04:35:55;;;;;;;28.95;23.42;;;;;;;6.52;81.66;99908.19;5106378;28;20048;-71
2022/11/14 04:38:23;;;;;;;27.70;21.20;;;;;;;6.49;81.64;99903.88;5106326;28;20036;-71
2022/11/14 04:40:50;;;;;;;30.15;22.92;;;;;;;6.50;81.63;99905.63;5106341;28;20052;-72
2022/11/14 04:43:17;;;;;;;29.88;24.20;;;;;;;6.52;81.67;99926.63;5106288;28;20097;-71
2022/11/14 04:45:44;;;;;;;29.77;22.75;;;;;;;6.52;81.64;99903.78;5106420;28;20081;-71
2022/11/14 04:48:11;;;;;;;28.73;22.70;;;;;;;6.55;81.55;99905.47;5106173;28;20047;-71
2022/11/14 04:50:38;;;;;;;29.45;23.52;;;;;;;5.86;81.50;99786.44;5106151;28;20059;-72
2022/11/14 04:53:05;;;;;;;28.88;23.55;;;;;;;6.56;81.62;99900.16;5106002;28;20036;-71
2022/11/14 04:55:33;;;;;;;31.90;23.67;;;;;;;6.57;81.59;99904.53;5105865;28;20040;-70
2022/11/14 04:57:59;;;;;;;28.55;22.70;;;;;;;6.39;81.52;99858.53;5106897;28;20117;-71
2022/11/14 05:00:26;;;;;;;29.38;22.45;;;;;;;6.47;81.62;99870.63;5106292;28;20040;-71
2022/11/14 05:02:53;;;;;;;29.73;22.33;;;;;;;6.57;81.53;99893.13;5106302;28;20032;-70
2022/11/14 05:05:20;;;;;;;29.13;23.35;;;;;;;6.59;81.29;99896.56;5105150;28;20188;-71
2022/11/14 05:07:47;;;;;;;30.52;24.30;;;;;;;6.56;81.48;99889.63;5106077;28;20093;-71
2022/11/14 05:10:14;;;;;;;30.88;22.55;;;;;;;6.55;81.58;99890.53;5088294;28;20119;-71
2022/11/14 05:12:42;;;;;;;33.00;24.58;;;;;;;6.53;81.61;99895.00;5106060;28;20043;-71
2022/11/14 05:15:09;;;;;;;31.90;22.75;;;;;;;5.99;81.39;99797.47;5106102;28;20044;-71
2022/11/14 05:17:36;;;;;;;29.27;23.63;;;;;;;6.55;81.57;99894.94;5105763;28;20207;-71
2022/11/14 05:20:03;;;;;;;30.85;23.45;;;;;;;6.51;81.66;99883.63;5106036;28;20048;-71
2022/11/14 05:22:30;;;;;;;33.85;24.98;;;;;;;6.48;81.93;99875.84;5104613;28;20238;-71
2022/11/14 05:24:56;;;;;;;35.50;22.23;;;;;;;6.48;81.98;99877.59;5105696;28;20047;-71
2022/11/14 05:27:23;;;;;;;30.92;23.15;;;;;;;6.30;81.88;99844.78;5105512;28;20043;-71
2022/11/14 05:29:51;;;;;;;29.38;22.92;;;;;;;6.47;81.91;99871.47;5105399;28;20040;-71
2022/11/14 05:32:18;;;;;;;30.88;23.27;;;;;;;6.40;82.04;99867.31;5104817;28;20040;-71
2022/11/14 05:34:44;;;;;;;30.55;22.90;;;;;;;6.47;81.98;99874.09;5107179;28;20101;-71
2022/11/14 05:37:11;;;;;;;29.10;22.20;;;;;;;6.29;81.92;99848.34;5109556;28;20081;-71
2022/11/14 05:39:38;;;;;;;32.60;25.30;;;;;;;6.47;82.01;99887.28;5110326;28;20050;-71
2022/11/14 05:42:05;;;;;;;33.65;24.10;;;;;;;6.45;82.26;99877.69;5110297;28;20055;-70
2022/11/14 05:44:31;;;;;;;31.63;22.67;;;;;;;6.42;82.13;99886.56;5109602;28;20353;-71
2022/11/14 05:46:59;;;;;;;31.35;23.58;;;;;;;6.40;82.30;99886.59;5109067;28;20342;-70
2022/11/14 05:49:26;;;;;;;32.30;24.48;;;;;;;6.05;82.28;99819.19;5109587;28;20078;-71
2022/11/14 05:51:53;;;;;;;30.48;24.98;;;;;;;6.26;82.43;99857.19;5110061;28;20043;-71
2022/11/14 05:54:19;;;;;;;33.55;23.70;;;;;;;6.07;82.46;99827.06;5110032;28;20055;-71
2022/11/14 05:56:46;;;;;;;32.92;23.40;;;;;;;6.41;82.55;99885.69;5109753;28;20044;-71
2022/11/14 05:59:13;;;;;;;31.27;23.13;;;;;;;6.41;82.60;99887.47;5109646;28;20044;-71
2022/11/14 06:01:40;;;;;;;30.33;24.25;;;;;;;6.41;82.59;99884.81;5109582;28;20044;-71
2022/11/14 06:04:08;;;;;;;31.77;23.23;;;;;;;6.40;82.58;99891.00;5109219;28;20056;-71
2022/11/14 06:06:34;;;;;;;28.80;22.05;;;;;;;6.39;82.62;99890.13;5109277;28;20055;-71
2022/11/14 06:09:01;;;;;;;29.02;22.40;;;;;;;6.40;82.73;99894.50;5108398;28;20039;-71
2022/11/14 06:11:28;;;;;;;32.97;22.60;;;;;;;6.40;82.82;99896.25;5108321;28;20044;-71
2022/11/14 06:13:55;;;;;;;29.65;22.67;;;;;;;6.26;82.68;99865.09;5108185;28;20307;-71
2022/11/14 06:16:21;;;;;;;35.17;23.92;;;;;;;6.41;82.86;99896.22;5108717;28;20172;-71
2022/11/14 06:18:48;;;;;;;31.83;24.63;;;;;;;6.40;82.81;99894.50;5108185;28;20060;-70
2022/11/14 06:21:18;;;;;;;30.50;23.38;;;;;;;5.98;82.93;99832.59;5108890;28;20085;-71
2022/11/14 06:23:45;;;;;;;29.30;22.95;;;;;;;6.36;83.20;99899.91;5108812;28;20097;-71
2022/11/14 06:26:20;;;;;;;29.35;22.77;;;;;;;6.03;82.94;99838.56;5107985;28;20123;-71
2022/11/14 06:28:48;;;;;;;32.90;24.40;;;;;;;6.35;82.99;99899.03;5108767;28;20074;-71
2022/11/14 06:31:15;;;;;;;31.85;24.63;;;;;;;6.19;83.07;99874.06;5109005;28;20063;-71
2022/11/14 06:33:42;;;;;;;30.98;23.02;;;;;;;6.28;82.96;99880.84;5108639;28;20046;-71
2022/11/14 06:36:09;;;;;;;28.88;22.90;;;;;;;6.38;83.02;99898.94;5108368;28;20040;-71
2022/11/14 06:38:40;;;;;;;31.13;23.80;;;;;;;6.18;83.00;99867.06;5108435;28;20043;-71
2022/11/14 06:41:08;;;;;;;31.52;23.70;;;;;;;6.39;82.92;99897.16;5108902;28;20066;-71
2022/11/14 06:43:37;;;;;;;32.13;25.23;;;;;;;6.41;82.98;99900.63;5108566;28;20291;-71
2022/11/14 06:46:04;;;;;;;30.48;22.25;;;;;;;6.39;83.15;99910.34;5107926;28;20085;-71
2022/11/14 06:48:31;;;;;;;31.15;23.95;;;;;;;6.39;83.42;99919.09;5107908;28;20224;-71
2022/11/14 06:50:59;;;;;;;33.83;24.83;;;;;;;6.28;83.20;99884.31;5108301;28;20044;-71
2022/11/14 06:53:27;;;;;;;32.50;22.67;;;;;;;6.39;83.11;99899.81;5108360;28;20089;-71
2022/11/14 06:55:56;;;;;;;35.42;25.65;;;;;;;6.38;83.33;99904.22;5108595;28;20086;-71
2022/11/14 06:58:25;;;;;;;31.88;24.77;;;;;;;6.40;83.34;99907.66;5108235;28;20044;-71
2022/11/14 07:00:52;;;;;;;29.42;22.25;;;;;;;6.41;83.27;99911.16;5107325;28;20044;-71
2022/11/14 07:03:19;;;;;;;31.08;22.65;;;;;;;6.40;83.36;99907.66;5107425;28;20085;-71
2022/11/14 07:05:46;;;;;;;31.05;23.73;;;;;;;6.19;83.28;99881.97;5108174;28;20040;-71
2022/11/14 07:08:13;;;;;;;32.65;23.27;;;;;;;6.42;83.37;99920.78;5108291;28;20311;-71
2022/11/14 07:10:39;;;;;;;30.40;21.85;;;;;;;6.43;83.06;99927.78;5108012;28;20203;-71
2022/11/14 07:13:10;;;;;;;30.08;22.23;;;;;;;6.41;83.56;99922.56;5106974;28;20260;-71
2022/11/14 07:15:37;;;;;;;31.08;23.10;;;;;;;6.26;83.38;99898.44;5108061;28;20351;-71
2022/11/14 07:18:04;;;;;;;29.30;21.67;;;;;;;5.83;83.33;99833.03;5106858;28;20300;-71
2022/11/14 07:20:30;;;;;;;30.00;22.58;;;;;;;5.46;83.25;99749.91;5107942;28;20052;-71
2022/11/14 07:22:57;;;;;;;31.27;22.95;;;;;;;6.43;83.53;99911.97;5106942;28;20036;-71
2022/11/14 07:25:24;;;;;;;29.10;20.83;;;;;;;6.21;83.38;99866.13;5107465;28;20055;-71
2022/11/14 07:27:50;;;;;;;29.58;22.58;;;;;;;6.42;83.52;99905.84;5107094;28;20040;-71
2022/11/14 07:30:19;;;;;;;33.05;24.65;;;;;;;6.41;83.65;99904.13;5107682;28;20296;-71
2022/11/14 07:32:46;;;;;;;31.27;22.90;;;;;;;6.42;83.55;99894.44;5107413;28;20044;-71
2022/11/14 07:35:12;;;;;;;29.27;22.48;;;;;;;6.41;83.53;99898.84;5106280;28;20093;-72
2022/11/14 07:37:39;;;;;;;29.95;23.15;;;;;;;6.40;83.48;99898.91;5108070;28;20056;-71
2022/11/14 07:40:07;;;;;;;30.23;22.85;;;;;;;6.41;83.56;99890.09;5107558;28;20051;-71
2022/11/14 07:42:34;;;;;;;31.08;23.55;;;;;;;6.46;83.59;99889.94;5107866;28;20040;-71
2022/11/14 07:45:00;;;;;;;29.65;22.90;;;;;;;6.46;83.57;99895.22;5107340;28;20204;-71
2022/11/14 07:47:29;;;;;;;32.58;22.40;;;;;;;6.37;83.42;99885.81;5106364;28;20048;-71
2022/11/14 07:49:55;;;;;;;31.13;22.17;;;;;;;6.25;83.29;99865.13;5107016;28;20052;-71
2022/11/14 07:52:22;;;;;;;32.42;24.75;;;;;;;6.42;83.69;99890.03;5106151;28;20032;-71
2022/11/14 07:54:49;;;;;;;30.98;23.98;;;;;;;6.43;83.85;99897.03;5106642;28;20046;-71
2022/11/14 07:57:16;;;;;;;31.95;23.75;;;;;;;6.42;83.89;99895.31;5106272;28;20039;-71
2022/11/14 07:59:42;;;;;;;30.60;24.80;;;;;;;6.43;83.93;99893.53;5107049;28;20222;-70
2022/11/14 08:02:13;;;;;;;32.83;24.65;;;;;;;6.46;84.04;99893.44;5106179;28;20036;-71
2022/11/14 08:04:41;;;;;;;32.38;22.83;;;;;;;6.48;84.09;99898.66;5107334;28;20058;-71
2022/11/14 08:07:08;;;;;;;33.08;24.33;;;;;;;6.47;84.06;99895.19;5107538;28;20048;-71
2022/11/14 08:09:35;;;;;;;31.35;22.48;;;;;;;6.45;84.17;99897.00;5107149;28;20044;-71
2022/11/14 08:12:01;;;;;;;33.45;23.92;;;;;;;6.45;83.96;99888.22;5106764;28;20093;-71
2022/11/14 08:14:28;;;;;;;31.58;22.38;;;;;;;6.45;84.06;99883.81;5105847;28;20085;-71
2022/11/14 08:16:55;;;;;;;30.23;22.50;;;;;;;6.42;84.06;99889.19;5106889;28;20317;-71
2022/11/14 08:19:22;;;;;;;34.92;23.42;;;;;;;6.42;84.22;99883.91;5106345;28;20062;-71
2022/11/14 08:21:50;;;;;;;32.65;23.42;;;;;;;4.87;84.31;99621.03;5106880;28;20051;-70
2022/11/14 08:24:16;;;;;;;31.73;24.27;;;;;;;6.41;84.41;99882.19;5106556;28;20044;-70
2022/11/14 08:26:43;;;;;;;30.05;22.23;;;;;;;6.23;84.49;99852.00;5106795;28;20270;-71
2022/11/14 08:29:10;;;;;;;31.92;23.02;;;;;;;6.39;84.46;99884.88;5106218;28;20056;-71
2022/11/14 08:31:37;;;;;;;30.40;22.35;;;;;;;6.42;84.42;99889.19;5105794;28;20035;-71
2022/11/14 08:34:03;;;;;;;31.58;22.65;;;;;;;6.40;84.56;99881.34;5106301;28;20173;-71
2022/11/14 08:36:30;;;;;;;31.77;24.52;;;;;;;6.40;84.57;99876.06;5106713;28;20101;-70
2022/11/14 08:38:58;;;;;;;32.53;23.95;;;;;;;3.09;84.17;99300.63;5106319;28;20039;-70
2022/11/14 08:41:25;;;;;;;30.88;22.73;;;;;;;6.45;84.75;99869.78;5106697;28;20050;-71
2022/11/14 08:43:51;;;;;;;33.42;24.73;;;;;;;6.46;84.54;99853.94;5106292;28;20181;-70
2022/11/14 08:46:18;;;;;;;33.10;24.63;;;;;;;6.47;84.66;99855.69;5106117;28;20040;-71
2022/11/14 08:48:45;;;;;;;31.08;21.88;;;;;;;6.47;84.59;99860.94;5106578;28;20044;-71
2022/11/14 08:51:11;;;;;;;32.75;23.08;;;;;;;6.30;84.64;99834.25;5105019;28;20054;-71
2022/11/14 08:53:38;;;;;;;29.88;23.27;;;;;;;6.45;84.57;99851.38;5106551;28;20036;-71
2022/11/14 08:56:08;;;;;;;31.25;24.63;;;;;;;6.46;84.74;99856.59;5106309;28;20043;-70
2022/11/14 08:58:36;;;;;;;31.35;24.30;;;;;;;6.48;84.73;99857.41;5105956;28;20052;-71
2022/11/14 09:01:05;;;;;;;32.10;23.67;;;;;;;6.50;84.67;99860.84;5106207;28;20050;-71
2022/11/14 09:03:32;;;;;;;33.80;24.38;;;;;;;6.53;84.62;99850.22;5105953;28;20048;-71
2022/11/14 09:05:59;;;;;;;32.55;25.08;;;;;;;6.55;84.53;99845.78;5105839;28;20185;-70
2022/11/14 09:08:26;;;;;;;31.38;23.33;;;;;;;6.14;84.61;99775.09;5105693;28;20300;-71
2022/11/14 09:10:53;;;;;;;31.60;25.15;;;;;;;6.29;84.49;99791.28;5106015;28;20048;-71
2022/11/14 09:13:21;;;;;;;33.83;26.10;;;;;;;6.74;84.53;99848.69;5104695;28;20044;-70
2022/11/14 09:15:48;;;;;;;28.45;23.88;;;;;;;6.87;84.50;99846.56;5105930;28;20310;-70
2022/11/14 09:18:15;;;;;;;29.20;23.02;;;;;;;6.99;83.93;99843.53;5105855;28;20039;-70
2022/11/14 09:20:42;;;;;;;30.58;23.15;;;;;;;7.17;83.67;99847.31;5105841;28;20043;-70
2022/11/14 09:23:09;;;;;;;31.52;22.67;;;;;;;7.35;82.99;99842.31;5105579;28;20040;-71
2022/11/14 09:25:37;;;;;;;29.27;23.00;;;;;;;7.29;82.47;99786.28;5104718;28;20043;-71
2022/11/14 09:28:05;;;;;;;28.42;21.75;;;;;;;7.75;82.01;99827.72;5104699;28;20036;-70
2022/11/14 09:30:34;;;;;;;28.63;23.33;;;;;;;7.89;81.41;99822.81;5105488;28;20054;-71
2022/11/14 09:33:02;;;;;;;29.23;23.60;;;;;;;7.38;80.78;99717.41;5105359;28;20074;-71
2022/11/14 09:35:29;;;;;;;27.67;21.13;;;;;;;7.92;80.42;99746.16;5105779;28;20040;-71
2022/11/14 09:38:00;;;;;;;26.58;21.70;;;;;;;8.44;80.06;99799.59;5105757;28;20141;-70
2022/11/14 09:40:27;;;;;;;25.48;19.58;;;;;;;7.91;79.20;99667.06;5105411;28;20040;-71
2022/11/14 09:43:06;;;;;;;26.02;21.27;;;;;;;8.80;79.14;99788.47;5105615;28;20203;-71
2022/11/14 09:45:38;;;;;;;24.67;18.15;;;;;;;8.94;78.36;99792.25;5105126;28;20071;-70
2022/11/14 09:48:10;;;;;;;22.67;19.98;;;;;;;8.91;77.76;99739.50;5105545;28;20044;-71
2022/11/14 09:50:43;;;;;;;22.60;18.02;;;;;;;8.70;77.54;99700.78;5105231;28;20066;-71
2022/11/14 09:53:15;;;;;;;22.25;17.90;;;;;;;8.33;76.77;99609.00;5104604;28;20077;-71
2022/11/14 09:55:42;;;;;;;23.27;18.48;;;;;;;9.41;76.52;99760.34;5106022;28;20278;-71
2022/11/14 09:58:16;;;;;;;24.27;18.13;;;;;;;9.49;75.81;99755.56;5104467;28;20039;-70
2022/11/14 10:00:51;;;;;;;20.83;17.63;;;;;;;9.44;75.95;99720.53;5104468;28;20093;-71
2022/11/14 10:03:29;;;;;;;26.63;18.92;;;;;;;9.77;75.46;99735.81;5105348;28;20050;-71
2022/11/14 10:06:24;;;;;;;22.13;17.67;;;;;;;9.82;73.83;99732.03;5105287;28;20323;-70
2022/11/14 10:09:10;;;;;;;23.48;18.50;;;;;;;9.88;73.37;99737.03;5105365;28;20304;-70
2022/11/14 10:11:42;;;;;;;23.40;20.23;;;;;;;9.95;74.55;99727.00;5105594;28;20064;-71
2022/11/14 10:14:27;;;;;;;20.80;17.63;;;;;;;8.97;73.09;99582.44;5104255;28;20036;-71
2022/11/14 10:17:05;;;;;;;21.70;18.30;;;;;;;10.00;74.15;99727.66;5104710;28;20044;-71
2022/11/14 10:19:38;;;;;;;19.73;15.77;;;;;;;10.15;73.58;99734.03;5104901;28;20238;-71
2022/11/14 10:22:25;;;;;;;19.92;16.83;;;;;;;10.17;72.31;99724.22;5107918;28;20097;-71
2022/11/14 10:25:18;;;;;;;23.65;18.27;;;;;;;10.21;72.76;99717.84;5108857;28;20298;-71
2022/11/14 10:27:57;;;;;;;22.52;17.23;;;;;;;10.35;72.93;99711.88;5106538;28;20105;-71
2022/11/14 10:30:30;;;;;;;19.85;16.88;;;;;;;10.46;72.87;99706.91;5108689;28;20040;-71
2022/11/14 10:33:23;;;;;;;22.30;19.00;;;;;;;10.56;71.39;99697.56;5108884;28;20097;-71
2022/11/14 10:35:57;;;;;;;21.48;17.90;;;;;;;10.44;72.12;99677.84;5108865;28;20097;-71
2022/11/14 10:38:30;;;;;;;23.98;18.75;;;;;;;10.56;72.01;99660.47;5108666;28;20090;-71
2022/11/14 10:41:00;;;;;;;20.25;16.48;;;;;;;10.81;72.19;99676.88;5108907;28;20044;-71
2022/11/14 10:43:33;;;;;;;22.23;17.38;;;;;;;10.50;71.59;99631.63;5108106;28;20066;-71
2022/11/14 10:46:05;;;;;;;21.70;17.73;;;;;;;10.85;71.42;99678.44;5108403;28;20044;-71
2022/11/14 10:48:36;;;;;;;19.90;16.38;;;;;;;10.97;71.19;99676.09;5108726;28;20074;-71
2022/11/14 10:51:12;;;;;;;22.40;17.40;;;;;;;11.02;71.04;99666.97;5108041;28;20075;-71
2022/11/14 10:53:48;;;;;;;19.25;17.15;;;;;;;11.13;70.51;99663.75;5107813;28;20048;-72
2022/11/14 10:56:15;;;;;;;25.98;16.92;;;;;;;11.31;71.07;99659.25;5107082;28;20040;-71
2022/11/14 10:58:42;;;;;;;19.48;16.92;;;;;;;11.47;70.62;99661.00;5108392;28;20047;-71
2022/11/14 11:01:35;;;;;;;22.30;18.30;;;;;;;11.52;68.50;99669.59;5108091;28;20047;-71
2022/11/14 11:04:19;;;;;;;23.85;17.85;;;;;;;11.56;68.57;99659.66;5107518;28;20123;-71
2022/11/14 11:06:45;;;;;;;19.97;17.60;;;;;;;11.59;69.73;99648.88;5108354;28;20276;-71
2022/11/14 11:12:01;;;;;;;20.30;18.13;;;;;;;11.77;69.10;99655.81;5107377;28;20051;-71
2022/11/14 11:14:29;;;;;;;23.35;17.27;;;;;;;11.83;69.31;99644.88;5108033;28;20060;-71
2022/11/14 11:17:23;;;;;;;23.55;18.67;;;;;;;11.91;66.35;99643.56;5107912;28;20304;-71
2022/11/14 11:19:51;;;;;;;20.30;16.88;;;;;;;11.97;68.48;99643.22;5072442;28;20052;-72
2022/11/14 11:22:36;;;;;;;21.90;18.75;;;;;;;12.08;66.10;99649.69;5108010;28;20334;-71
2022/11/14 11:25:22;;;;;;;21.15;17.23;;;;;;;12.12;68.00;99643.25;5106787;28;20094;-71
2022/11/14 11:28:04;;;;;;;19.60;16.52;;;;;;;12.13;66.01;99639.66;5107993;28;20191;-71
2022/11/14 11:30:31;;;;;;;21.58;17.70;;;;;;;12.12;68.10;99635.28;5107857;28;20051;-71
2022/11/14 11:33:22;;;;;;;22.15;19.73;;;;;;;12.06;64.05;99642.75;5106522;28;20047;-72